sensor_id;sensor_type;location;lat;lon;timestamp;pressure;altitude;pressure_sealevel;temperature;humidity
596;BME280;19946;49.306;11.350;2022-07-22T00:01:06;96806.31;;;14.95;100.00
596;BME280;19946;49.306;11.350;2022-07-22T00:04:06;96799.38;;;14.86;100.00
596;BME280;19946;49.306;11.350;2022-07-22T00:07:06;96807.34;;;14.84;100.00
596;BME280;19946;49.306;11.350;2022-07-22T00:10:08;96798.84;;;14.82;100.00
596;BME280;19946;49.306;11.350;2022-07-22T00:13:10;96795.13;;;14.85;100.00
596;BME280;19946;49.306;11.350;2022-07-22T00:16:11;96801.03;;;14.87;100.00
596;BME280;19946;49.306;11.350;2022-07-22T00:19:11;96797.44;;;14.70;100.00
596;BME280;19946;49.306;11.350;2022-07-22T00:22:12;96772.97;;;14.53;100.00
596;BME280;19946;49.306;11.350;2022-07-22T00:25:12;96777.50;;;14.51;100.00
596;BME280;19946;49.306;11.350;2022-07-22T00:28:13;96762.31;;;14.47;100.00
596;BME280;19946;49.306;11.350;2022-07-22T00:31:14;96782.56;;;14.53;100.00
596;BME280;19946;49.306;11.350;2022-07-22T00:34:14;96782.34;;;14.46;100.00
596;BME280;19946;49.306;11.350;2022-07-22T00:37:14;96782.34;;;14.46;100.00
596;BME280;19946;49.306;11.350;2022-07-22T00:40:15;96759.47;;;14.40;100.00
596;BME280;19946;49.306;11.350;2022-07-22T00:43:15;96785.47;;;14.50;100.00
596;BME280;19946;49.306;11.350;2022-07-22T00:46:15;96761.78;;;14.43;100.00
596;BME280;19946;49.306;11.350;2022-07-22T00:49:16;96744.16;;;14.28;100.00
596;BME280;19946;49.306;11.350;2022-07-22T00:52:19;96743.34;;;14.27;100.00
596;BME280;19946;49.306;11.350;2022-07-22T00:55:19;96779.75;;;14.46;100.00
596;BME280;19946;49.306;11.350;2022-07-22T00:58:19;96776.44;;;14.44;100.00
596;BME280;19946;49.306;11.350;2022-07-22T01:01:22;96757.34;;;14.26;100.00
596;BME280;19946;49.306;11.350;2022-07-22T01:04:22;96755.44;;;14.18;100.00
596;BME280;19946;49.306;11.350;2022-07-22T01:07:22;96776.53;;;14.25;100.00
596;BME280;19946;49.306;11.350;2022-07-22T01:10:24;96768.31;;;14.20;100.00
596;BME280;19946;49.306;11.350;2022-07-22T01:13:24;96767.63;;;14.28;100.00
596;BME280;19946;49.306;11.350;2022-07-22T01:16:25;96747.16;;;14.05;100.00
596;BME280;19946;49.306;11.350;2022-07-22T01:19:25;96749.59;;;14.07;100.00
596;BME280;19946;49.306;11.350;2022-07-22T01:22:26;96746.16;;;14.06;100.00
596;BME280;19946;49.306;11.350;2022-07-22T01:25:27;96752.06;;;14.08;100.00
596;BME280;19946;49.306;11.350;2022-07-22T01:28:27;96772.19;;;14.16;100.00
596;BME280;19946;49.306;11.350;2022-07-22T01:31:28;96769.03;;;14.12;100.00
596;BME280;19946;49.306;11.350;2022-07-22T01:34:31;96761.66;;;14.08;100.00
596;BME280;19946;49.306;11.350;2022-07-22T01:37:33;96763.16;;;14.10;100.00
596;BME280;19946;49.306;11.350;2022-07-22T01:40:34;96725.91;;;14.00;100.00
596;BME280;19946;49.306;11.350;2022-07-22T01:43:35;96763.38;;;14.27;100.00
596;BME280;19946;49.306;11.350;2022-07-22T01:46:35;96770.88;;;14.02;100.00
596;BME280;19946;49.306;11.350;2022-07-22T01:49:36;96730.78;;;13.85;100.00
596;BME280;19946;49.306;11.350;2022-07-22T01:52:38;96767.56;;;14.00;100.00
596;BME280;19946;49.306;11.350;2022-07-22T01:55:39;96749.06;;;14.03;100.00
596;BME280;19946;49.306;11.350;2022-07-22T01:58:40;96751.91;;;13.82;100.00
596;BME280;19946;49.306;11.350;2022-07-22T02:01:42;96744.75;;;13.84;100.00
596;BME280;19946;49.306;11.350;2022-07-22T02:04:42;96748.66;;;13.98;100.00
596;BME280;19946;49.306;11.350;2022-07-22T02:07:43;96741.53;;;14.00;100.00
596;BME280;19946;49.306;11.350;2022-07-22T02:10:44;96740.69;;;14.09;100.00
596;BME280;19946;49.306;11.350;2022-07-22T02:13:44;96763.78;;;14.22;100.00
596;BME280;19946;49.306;11.350;2022-07-22T02:16:45;96772.78;;;14.00;100.00
596;BME280;19946;49.306;11.350;2022-07-22T02:19:45;96768.00;;;14.05;100.00
596;BME280;19946;49.306;11.350;2022-07-22T02:22:47;96738.88;;;13.82;100.00
596;BME280;19946;49.306;11.350;2022-07-22T02:25:47;96763.53;;;13.78;100.00
596;BME280;19946;49.306;11.350;2022-07-22T02:28:47;96748.38;;;13.64;100.00
596;BME280;19946;49.306;11.350;2022-07-22T02:31:48;96766.13;;;13.88;100.00
596;BME280;19946;49.306;11.350;2022-07-22T02:34:48;96763.97;;;13.83;100.00
596;BME280;19946;49.306;11.350;2022-07-22T02:37:49;96759.41;;;13.85;100.00
596;BME280;19946;49.306;11.350;2022-07-22T02:40:49;96764.00;;;13.64;100.00
596;BME280;19946;49.306;11.350;2022-07-22T02:43:50;96716.25;;;13.46;100.00
596;BME280;19946;49.306;11.350;2022-07-22T02:46:53;96753.75;;;13.63;100.00
596;BME280;19946;49.306;11.350;2022-07-22T02:50:02;96739.50;;;13.57;100.00
596;BME280;19946;49.306;11.350;2022-07-22T02:53:02;96731.47;;;13.41;100.00
596;BME280;19946;49.306;11.350;2022-07-22T02:56:08;96757.44;;;13.60;100.00
596;BME280;19946;49.306;11.350;2022-07-22T02:59:08;96728.56;;;13.53;100.00
596;BME280;19946;49.306;11.350;2022-07-22T03:02:09;96757.78;;;13.75;100.00
596;BME280;19946;49.306;11.350;2022-07-22T03:05:10;96765.59;;;13.75;100.00
596;BME280;19946;49.306;11.350;2022-07-22T03:08:16;96760.91;;;13.51;100.00
596;BME280;19946;49.306;11.350;2022-07-22T03:11:18;96762.38;;;13.53;100.00
596;BME280;19946;49.306;11.350;2022-07-22T03:14:19;96746.13;;;13.23;100.00
596;BME280;19946;49.306;11.350;2022-07-22T03:17:20;96762.28;;;13.36;100.00
596;BME280;19946;49.306;11.350;2022-07-22T03:20:20;96762.41;;;13.44;100.00
596;BME280;19946;49.306;11.350;2022-07-22T03:23:21;96765.53;;;13.57;100.00
596;BME280;19946;49.306;11.350;2022-07-22T03:26:22;96760.72;;;13.62;100.00
596;BME280;19946;49.306;11.350;2022-07-22T03:29:23;96759.34;;;13.58;100.00
596;BME280;19946;49.306;11.350;2022-07-22T03:32:24;96765.94;;;13.43;100.00
596;BME280;19946;49.306;11.350;2022-07-22T03:35:25;96767.63;;;13.34;100.00
596;BME280;19946;49.306;11.350;2022-07-22T03:38:25;96770.78;;;13.28;100.00
596;BME280;19946;49.306;11.350;2022-07-22T03:41:26;96746.97;;;13.23;100.00
596;BME280;19946;49.306;11.350;2022-07-22T03:44:27;96733.69;;;13.07;100.00
596;BME280;19946;49.306;11.350;2022-07-22T03:47:28;96761.72;;;13.32;100.00
596;BME280;19946;49.306;11.350;2022-07-22T03:50:28;96767.91;;;13.41;100.00
596;BME280;19946;49.306;11.350;2022-07-22T03:53:29;96765.94;;;13.43;100.00
596;BME280;19946;49.306;11.350;2022-07-22T03:56:30;96731.91;;;13.27;100.00
596;BME280;19946;49.306;11.350;2022-07-22T03:59:31;96763.75;;;13.58;100.00
596;BME280;19946;49.306;11.350;2022-07-22T04:02:33;96768.22;;;13.65;100.00
596;BME280;19946;49.306;11.350;2022-07-22T04:05:33;96772.66;;;13.55;100.00
596;BME280;19946;49.306;11.350;2022-07-22T04:08:35;96772.63;;;13.65;100.00
596;BME280;19946;49.306;11.350;2022-07-22T04:11:38;96774.13;;;13.67;100.00
596;BME280;19946;49.306;11.350;2022-07-22T04:14:39;96735.69;;;13.51;100.00
596;BME280;19946;49.306;11.350;2022-07-22T04:17:39;96768.38;;;13.73;100.00
596;BME280;19946;49.306;11.350;2022-07-22T04:20:40;96771.34;;;13.78;100.00
596;BME280;19946;49.306;11.350;2022-07-22T04:24:07;96771.41;;;14.06;100.00
596;BME280;19946;49.306;11.350;2022-07-22T04:27:07;96762.06;;;14.40;100.00
596;BME280;19946;49.306;11.350;2022-07-22T04:30:11;96739.09;;;14.53;100.00
596;BME280;19946;49.306;11.350;2022-07-22T04:33:13;96739.97;;;15.15;100.00
596;BME280;19946;49.306;11.350;2022-07-22T04:36:13;96741.03;;;15.48;100.00
596;BME280;19946;49.306;11.350;2022-07-22T04:39:15;96749.66;;;15.92;100.00
596;BME280;19946;49.306;11.350;2022-07-22T04:42:21;96768.19;;;16.57;100.00
596;BME280;19946;49.306;11.350;2022-07-22T04:45:24;96753.75;;;16.79;100.00
596;BME280;19946;49.306;11.350;2022-07-22T04:48:24;96765.44;;;16.59;100.00
596;BME280;19946;49.306;11.350;2022-07-22T04:51:25;96761.44;;;16.89;100.00
596;BME280;19946;49.306;11.350;2022-07-22T04:54:31;96765.25;;;17.27;100.00
596;BME280;19946;49.306;11.350;2022-07-22T04:57:32;96742.19;;;17.06;100.00
596;BME280;19946;49.306;11.350;2022-07-22T05:00:35;96734.47;;;16.88;100.00
596;BME280;19946;49.306;11.350;2022-07-22T05:03:40;96757.56;;;17.25;100.00
596;BME280;19946;49.306;11.350;2022-07-22T05:06:41;96721.03;;;17.56;100.00
596;BME280;19946;49.306;11.350;2022-07-22T05:09:41;96751.50;;;18.20;100.00
596;BME280;19946;49.306;11.350;2022-07-22T05:12:44;96756.28;;;18.56;100.00
596;BME280;19946;49.306;11.350;2022-07-22T05:15:45;96758.94;;;18.48;100.00
596;BME280;19946;49.306;11.350;2022-07-22T05:18:46;96760.72;;;18.86;100.00
596;BME280;19946;49.306;11.350;2022-07-22T05:21:49;96757.34;;;19.01;100.00
596;BME280;19946;49.306;11.350;2022-07-22T05:24:50;96758.25;;;18.54;100.00
596;BME280;19946;49.306;11.350;2022-07-22T05:27:52;96756.13;;;18.57;100.00
596;BME280;19946;49.306;11.350;2022-07-22T05:30:57;96755.38;;;18.33;100.00
596;BME280;19946;49.306;11.350;2022-07-22T05:34:00;96756.13;;;18.88;100.00
596;BME280;19946;49.306;11.350;2022-07-22T05:37:04;96740.13;;;18.98;100.00
596;BME280;19946;49.306;11.350;2022-07-22T05:40:05;96734.53;;;18.78;100.00
596;BME280;19946;49.306;11.350;2022-07-22T05:43:05;96754.81;;;19.53;100.00
596;BME280;19946;49.306;11.350;2022-07-22T05:46:05;96751.06;;;19.47;100.00
596;BME280;19946;49.306;11.350;2022-07-22T05:49:07;96745.94;;;19.31;100.00
596;BME280;19946;49.306;11.350;2022-07-22T05:52:18;96735.19;;;19.41;100.00
596;BME280;19946;49.306;11.350;2022-07-22T05:55:18;96749.56;;;19.30;100.00
596;BME280;19946;49.306;11.350;2022-07-22T05:58:21;96756.00;;;19.50;100.00
596;BME280;19946;49.306;11.350;2022-07-22T06:01:22;96752.50;;;19.73;100.00
596;BME280;19946;49.306;11.350;2022-07-22T06:04:23;96756.06;;;20.09;100.00
596;BME280;19946;49.306;11.350;2022-07-22T06:07:23;96744.34;;;20.26;100.00
596;BME280;19946;49.306;11.350;2022-07-22T06:10:31;96733.84;;;19.97;100.00
596;BME280;19946;49.306;11.350;2022-07-22T06:13:32;96727.69;;;20.19;100.00
596;BME280;19946;49.306;11.350;2022-07-22T06:16:33;96734.09;;;20.46;100.00
596;BME280;19946;49.306;11.350;2022-07-22T06:19:35;96750.03;;;20.95;100.00
596;BME280;19946;49.306;11.350;2022-07-22T06:22:36;96709.94;;;20.57;100.00
596;BME280;19946;49.306;11.350;2022-07-22T06:25:39;96749.09;;;21.03;100.00
596;BME280;19946;49.306;11.350;2022-07-22T06:28:39;96752.22;;;20.56;100.00
596;BME280;19946;49.306;11.350;2022-07-22T06:31:40;96753.78;;;20.86;100.00
596;BME280;19946;49.306;11.350;2022-07-22T06:34:41;96754.19;;;20.68;100.00
596;BME280;19946;49.306;11.350;2022-07-22T06:37:41;96760.44;;;21.03;100.00
596;BME280;19946;49.306;11.350;2022-07-22T06:40:42;96757.34;;;20.78;100.00
596;BME280;19946;49.306;11.350;2022-07-22T06:44:07;96759.44;;;21.04;100.00
596;BME280;19946;49.306;11.350;2022-07-22T06:47:26;96762.06;;;21.68;100.00
596;BME280;19946;49.306;11.350;2022-07-22T06:50:27;96766.41;;;21.82;100.00
596;BME280;19946;49.306;11.350;2022-07-22T06:53:27;96742.03;;;21.25;100.00
596;BME280;19946;49.306;11.350;2022-07-22T06:56:28;96723.16;;;21.21;100.00
596;BME280;19946;49.306;11.350;2022-07-22T06:59:28;96752.31;;;21.97;100.00
596;BME280;19946;49.306;11.350;2022-07-22T07:02:29;96759.75;;;21.59;100.00
596;BME280;19946;49.306;11.350;2022-07-22T07:05:30;96715.97;;;21.30;100.00
596;BME280;19946;49.306;11.350;2022-07-22T07:08:31;96753.66;;;21.86;100.00
596;BME280;19946;49.306;11.350;2022-07-22T07:11:32;96753.28;;;22.17;100.00
596;BME280;19946;49.306;11.350;2022-07-22T07:14:33;96719.59;;;22.19;100.00
596;BME280;19946;49.306;11.350;2022-07-22T07:17:33;96755.53;;;22.68;100.00
596;BME280;19946;49.306;11.350;2022-07-22T07:20:36;96741.31;;;22.69;100.00
596;BME280;19946;49.306;11.350;2022-07-22T07:23:38;96740.59;;;22.88;100.00
596;BME280;19946;49.306;11.350;2022-07-22T07:26:38;96702.25;;;22.44;100.00
596;BME280;19946;49.306;11.350;2022-07-22T07:29:39;96717.94;;;22.66;100.00
596;BME280;19946;49.306;11.350;2022-07-22T07:32:40;96734.88;;;22.78;100.00
596;BME280;19946;49.306;11.350;2022-07-22T07:35:41;96738.00;;;23.47;100.00
596;BME280;19946;49.306;11.350;2022-07-22T07:38:43;96730.84;;;22.95;100.00
596;BME280;19946;49.306;11.350;2022-07-22T07:41:48;96707.91;;;23.02;100.00
596;BME280;19946;49.306;11.350;2022-07-22T07:44:49;96728.66;;;23.18;100.00
596;BME280;19946;49.306;11.350;2022-07-22T07:47:50;96721.53;;;23.39;100.00
596;BME280;19946;49.306;11.350;2022-07-22T07:50:50;96709.13;;;23.26;100.00
596;BME280;19946;49.306;11.350;2022-07-22T07:53:51;96702.84;;;23.07;100.00
596;BME280;19946;49.306;11.350;2022-07-22T07:56:51;96723.78;;;23.35;100.00
596;BME280;19946;49.306;11.350;2022-07-22T07:59:52;96705.56;;;22.66;100.00
596;BME280;19946;49.306;11.350;2022-07-22T08:02:52;96720.94;;;23.04;100.00
596;BME280;19946;49.306;11.350;2022-07-22T08:05:54;96712.19;;;23.29;100.00
596;BME280;19946;49.306;11.350;2022-07-22T08:08:57;96723.56;;;23.37;100.00
596;BME280;19946;49.306;11.350;2022-07-22T08:12:06;96718.69;;;23.86;100.00
596;BME280;19946;49.306;11.350;2022-07-22T08:15:30;96720.44;;;24.32;100.00
596;BME280;19946;49.306;11.350;2022-07-22T08:18:31;96716.94;;;24.38;97.19
596;BME280;19946;49.306;11.350;2022-07-22T08:21:31;96703.09;;;24.36;94.45
596;BME280;19946;49.306;11.350;2022-07-22T08:24:34;96690.63;;;23.72;99.62
596;BME280;19946;49.306;11.350;2022-07-22T08:27:43;96715.97;;;24.26;97.99
596;BME280;19946;49.306;11.350;2022-07-22T08:30:43;96715.06;;;24.45;96.46
596;BME280;19946;49.306;11.350;2022-07-22T08:33:44;96710.75;;;24.89;92.93
596;BME280;19946;49.306;11.350;2022-07-22T08:36:45;96697.06;;;25.05;94.55
596;BME280;19946;49.306;11.350;2022-07-22T08:39:46;96658.47;;;25.59;88.26
596;BME280;19946;49.306;11.350;2022-07-22T08:42:48;96694.63;;;25.28;86.58
596;BME280;19946;49.306;11.350;2022-07-22T08:45:50;96690.13;;;25.54;83.92
596;BME280;19946;49.306;11.350;2022-07-22T08:48:50;96666.03;;;25.62;83.55
596;BME280;19946;49.306;11.350;2022-07-22T08:51:59;96677.16;;;25.21;85.69
596;BME280;19946;49.306;11.350;2022-07-22T08:55:03;96663.38;;;25.80;85.46
596;BME280;19946;49.306;11.350;2022-07-22T08:58:04;96677.97;;;25.71;82.26
596;BME280;19946;49.306;11.350;2022-07-22T09:01:10;96674.28;;;25.47;86.78
596;BME280;19946;49.306;11.350;2022-07-22T09:04:14;96670.72;;;25.10;85.04
596;BME280;19946;49.306;11.350;2022-07-22T09:07:26;96670.56;;;25.05;87.01
596;BME280;19946;49.306;11.350;2022-07-22T09:10:32;96652.72;;;24.87;86.93
596;BME280;19946;49.306;11.350;2022-07-22T09:14:03;96670.00;;;25.21;82.90
596;BME280;19946;49.306;11.350;2022-07-22T09:17:32;96676.38;;;26.06;80.73
596;BME280;19946;49.306;11.350;2022-07-22T09:20:58;96664.53;;;26.57;81.99
596;BME280;19946;49.306;11.350;2022-07-22T09:24:30;96652.13;;;26.69;76.13
596;BME280;19946;49.306;11.350;2022-07-22T09:27:50;96637.00;;;26.03;77.05
596;BME280;19946;49.306;11.350;2022-07-22T09:31:02;96657.78;;;27.26;76.34
596;BME280;19946;49.306;11.350;2022-07-22T09:34:06;96645.69;;;27.88;70.06
596;BME280;19946;49.306;11.350;2022-07-22T09:37:06;96659.00;;;27.65;68.72
596;BME280;19946;49.306;11.350;2022-07-22T09:40:16;96654.97;;;26.98;71.61
596;BME280;19946;49.306;11.350;2022-07-22T09:43:19;96657.13;;;27.89;69.88
596;BME280;19946;49.306;11.350;2022-07-22T09:46:40;96642.59;;;28.60;66.40
596;BME280;19946;49.306;11.350;2022-07-22T09:49:40;96649.13;;;28.81;66.98
596;BME280;19946;49.306;11.350;2022-07-22T09:53:00;96643.91;;;29.36;62.19
596;BME280;19946;49.306;11.350;2022-07-22T09:56:04;96623.16;;;29.38;59.65
596;BME280;19946;49.306;11.350;2022-07-22T09:59:06;96614.44;;;28.64;64.73
596;BME280;19946;49.306;11.350;2022-07-22T10:02:17;96636.78;;;28.63;60.99
596;BME280;19946;49.306;11.350;2022-07-22T10:05:20;96619.22;;;27.35;63.58
596;BME280;19946;49.306;11.350;2022-07-22T10:08:24;96618.16;;;27.24;67.47
596;BME280;19946;49.306;11.350;2022-07-22T10:11:25;96597.16;;;27.58;62.45
596;BME280;19946;49.306;11.350;2022-07-22T10:14:27;96606.41;;;26.90;64.80
596;BME280;19946;49.306;11.350;2022-07-22T10:17:32;96631.91;;;27.80;65.42
596;BME280;19946;49.306;11.350;2022-07-22T10:20:33;96605.44;;;27.73;66.38
596;BME280;19946;49.306;11.350;2022-07-22T10:23:35;96626.47;;;27.51;61.96
596;BME280;19946;49.306;11.350;2022-07-22T10:26:53;96604.34;;;27.97;63.06
596;BME280;19946;49.306;11.350;2022-07-22T10:29:54;96617.63;;;28.09;60.73
596;BME280;19946;49.306;11.350;2022-07-22T10:36:09;96597.06;;;27.93;56.53
596;BME280;19946;49.306;11.350;2022-07-22T10:39:13;96588.72;;;28.86;60.52
596;BME280;19946;49.306;11.350;2022-07-22T10:42:14;96590.28;;;28.14;54.45
596;BME280;19946;49.306;11.350;2022-07-22T10:45:17;96612.50;;;27.79;56.08
596;BME280;19946;49.306;11.350;2022-07-22T10:51:30;96601.88;;;28.48;51.54
596;BME280;19946;49.306;11.350;2022-07-22T10:54:30;96584.44;;;28.85;52.49
596;BME280;19946;49.306;11.350;2022-07-22T10:57:31;96575.78;;;29.28;57.14
596;BME280;19946;49.306;11.350;2022-07-22T11:00:32;96574.81;;;29.18;57.74
596;BME280;19946;49.306;11.350;2022-07-22T11:03:33;96596.34;;;29.66;54.69
596;BME280;19946;49.306;11.350;2022-07-22T11:06:34;96557.81;;;30.01;54.81
596;BME280;19946;49.306;11.350;2022-07-22T11:09:35;96570.31;;;29.95;45.94
596;BME280;19946;49.306;11.350;2022-07-22T11:12:35;96572.94;;;29.52;48.90
596;BME280;19946;49.306;11.350;2022-07-22T11:15:36;96562.91;;;29.42;47.21
596;BME280;19946;49.306;11.350;2022-07-22T11:21:59;96558.16;;;29.88;48.10
596;BME280;19946;49.306;11.350;2022-07-22T11:25:00;96572.28;;;30.05;45.61
596;BME280;19946;49.306;11.350;2022-07-22T11:28:01;96558.94;;;29.83;44.94
596;BME280;19946;49.306;11.350;2022-07-22T11:31:09;96571.72;;;29.26;48.29
596;BME280;19946;49.306;11.350;2022-07-22T11:34:13;96561.44;;;30.38;46.38
596;BME280;19946;49.306;11.350;2022-07-22T11:37:16;96564.31;;;29.88;43.91
596;BME280;19946;49.306;11.350;2022-07-22T11:40:17;96538.06;;;30.02;44.39
596;BME280;19946;49.306;11.350;2022-07-22T11:43:17;96561.34;;;29.85;43.48
596;BME280;19946;49.306;11.350;2022-07-22T11:46:17;96534.59;;;30.82;42.26
596;BME280;19946;49.306;11.350;2022-07-22T11:49:20;96523.75;;;31.36;42.20
596;BME280;19946;49.306;11.350;2022-07-22T11:52:21;96542.59;;;30.50;44.28
596;BME280;19946;49.306;11.350;2022-07-22T11:55:21;96527.19;;;30.62;41.48
596;BME280;19946;49.306;11.350;2022-07-22T11:58:46;96538.19;;;30.66;42.27
596;BME280;19946;49.306;11.350;2022-07-22T12:01:48;96539.56;;;30.15;48.55
596;BME280;19946;49.306;11.350;2022-07-22T12:04:49;96527.72;;;30.05;44.01
596;BME280;19946;49.306;11.350;2022-07-22T12:07:51;96528.56;;;29.89;42.01
596;BME280;19946;49.306;11.350;2022-07-22T12:10:51;96529.81;;;28.71;44.12
596;BME280;19946;49.306;11.350;2022-07-22T12:13:52;96532.63;;;29.15;43.12
596;BME280;19946;49.306;11.350;2022-07-22T12:20:09;96507.63;;;28.82;44.84
596;BME280;19946;49.306;11.350;2022-07-22T12:23:13;96492.81;;;28.41;45.44
596;BME280;19946;49.306;11.350;2022-07-22T12:26:13;96516.97;;;28.68;45.92
596;BME280;19946;49.306;11.350;2022-07-22T12:35:23;96503.81;;;30.21;46.79
596;BME280;19946;49.306;11.350;2022-07-22T12:38:23;96488.72;;;30.04;41.22
596;BME280;19946;49.306;11.350;2022-07-22T12:41:26;96500.69;;;30.02;45.20
596;BME280;19946;49.306;11.350;2022-07-22T12:44:26;96465.13;;;29.74;42.88
596;BME280;19946;49.306;11.350;2022-07-22T12:48:13;96469.41;;;29.75;40.31
596;BME280;19946;49.306;11.350;2022-07-22T12:51:10;96464.34;;;29.74;41.76
596;BME280;19946;49.306;11.350;2022-07-22T12:54:10;96481.75;;;29.82;41.76
596;BME280;19946;49.306;11.350;2022-07-22T12:57:11;96465.13;;;29.31;48.83
596;BME280;19946;49.306;11.350;2022-07-22T13:00:19;96458.19;;;29.95;42.43
596;BME280;19946;49.306;11.350;2022-07-22T13:03:21;96475.78;;;30.82;44.36
596;BME280;19946;49.306;11.350;2022-07-22T13:06:23;96467.44;;;31.15;40.91
596;BME280;19946;49.306;11.350;2022-07-22T13:09:24;96460.59;;;30.56;39.56
596;BME280;19946;49.306;11.350;2022-07-22T13:12:25;96472.81;;;30.46;42.07
596;BME280;19946;49.306;11.350;2022-07-22T13:15:26;96467.22;;;30.48;37.61
596;BME280;19946;49.306;11.350;2022-07-22T13:18:26;96462.91;;;30.15;37.48
596;BME280;19946;49.306;11.350;2022-07-22T13:21:27;96467.41;;;30.41;37.97
596;BME280;19946;49.306;11.350;2022-07-22T13:24:27;96452.91;;;30.59;38.29
596;BME280;19946;49.306;11.350;2022-07-22T13:27:28;96436.69;;;30.76;37.62
596;BME280;19946;49.306;11.350;2022-07-22T13:30:28;96435.06;;;30.70;37.26
596;BME280;19946;49.306;11.350;2022-07-22T13:33:29;96444.97;;;30.74;38.32
596;BME280;19946;49.306;11.350;2022-07-22T13:36:29;96445.19;;;30.68;37.58
596;BME280;19946;49.306;11.350;2022-07-22T13:39:32;96434.56;;;30.78;38.35
596;BME280;19946;49.306;11.350;2022-07-22T13:42:33;96418.81;;;30.44;39.92
596;BME280;19946;49.306;11.350;2022-07-22T13:45:33;96421.44;;;30.39;38.77
596;BME280;19946;49.306;11.350;2022-07-22T13:48:34;96432.72;;;30.46;37.60
596;BME280;19946;49.306;11.350;2022-07-22T13:51:34;96432.59;;;30.63;39.38
596;BME280;19946;49.306;11.350;2022-07-22T13:54:35;96420.94;;;31.27;37.09
596;BME280;19946;49.306;11.350;2022-07-22T13:57:36;96402.00;;;30.86;36.72
596;BME280;19946;49.306;11.350;2022-07-22T14:00:39;96412.19;;;30.94;34.77
596;BME280;19946;49.306;11.350;2022-07-22T14:03:40;96433.94;;;30.61;36.41
596;BME280;19946;49.306;11.350;2022-07-22T14:06:40;96437.53;;;30.81;35.77
596;BME280;19946;49.306;11.350;2022-07-22T14:09:41;96414.31;;;31.39;34.38
596;BME280;19946;49.306;11.350;2022-07-22T14:12:42;96416.09;;;31.13;36.27
596;BME280;19946;49.306;11.350;2022-07-22T14:15:42;96404.16;;;30.89;35.05
596;BME280;19946;49.306;11.350;2022-07-22T14:18:42;96401.56;;;31.04;36.54
596;BME280;19946;49.306;11.350;2022-07-22T14:21:44;96416.19;;;31.39;34.99
596;BME280;19946;49.306;11.350;2022-07-22T14:24:45;96417.38;;;31.68;35.27
596;BME280;19946;49.306;11.350;2022-07-22T14:27:46;96396.97;;;31.52;34.03
596;BME280;19946;49.306;11.350;2022-07-22T14:30:47;96412.84;;;31.79;33.09
596;BME280;19946;49.306;11.350;2022-07-22T14:33:48;96401.66;;;31.19;33.76
596;BME280;19946;49.306;11.350;2022-07-22T14:36:48;96394.91;;;31.79;34.12
596;BME280;19946;49.306;11.350;2022-07-22T14:39:49;96368.22;;;31.17;34.01
596;BME280;19946;49.306;11.350;2022-07-22T14:42:49;96364.78;;;31.37;34.33
596;BME280;19946;49.306;11.350;2022-07-22T14:45:50;96392.50;;;31.78;33.41
596;BME280;19946;49.306;11.350;2022-07-22T14:48:50;96379.31;;;31.61;33.59
596;BME280;19946;49.306;11.350;2022-07-22T14:51:53;96391.94;;;31.66;33.43
596;BME280;19946;49.306;11.350;2022-07-22T14:54:54;96398.53;;;31.43;33.08
596;BME280;19946;49.306;11.350;2022-07-22T14:57:54;96397.41;;;31.29;35.39
596;BME280;19946;49.306;11.350;2022-07-22T15:00:55;96390.81;;;31.62;35.24
596;BME280;19946;49.306;11.350;2022-07-22T15:03:57;96366.56;;;32.24;32.99
596;BME280;19946;49.306;11.350;2022-07-22T15:06:57;96366.00;;;31.86;32.84
596;BME280;19946;49.306;11.350;2022-07-22T15:09:57;96380.78;;;31.11;33.87
596;BME280;19946;49.306;11.350;2022-07-22T15:12:58;96378.75;;;31.44;33.69
596;BME280;19946;49.306;11.350;2022-07-22T15:15:58;96377.66;;;31.35;33.57
596;BME280;19946;49.306;11.350;2022-07-22T15:18:59;96356.81;;;30.05;35.33
596;BME280;19946;49.306;11.350;2022-07-22T15:21:59;96365.78;;;30.26;34.81
596;BME280;19946;49.306;11.350;2022-07-22T15:25:00;96356.41;;;30.56;34.35
596;BME280;19946;49.306;11.350;2022-07-22T15:28:00;96354.78;;;30.55;34.07
596;BME280;19946;49.306;11.350;2022-07-22T15:31:01;96354.72;;;30.92;33.27
596;BME280;19946;49.306;11.350;2022-07-22T15:34:03;96347.06;;;31.15;32.71
596;BME280;19946;49.306;11.350;2022-07-22T15:37:03;96363.94;;;31.21;33.28
596;BME280;19946;49.306;11.350;2022-07-22T15:40:08;96349.38;;;30.92;32.79
596;BME280;19946;49.306;11.350;2022-07-22T15:43:10;96358.38;;;31.38;33.12
596;BME280;19946;49.306;11.350;2022-07-22T15:46:10;96302.31;;;30.96;33.50
596;BME280;19946;49.306;11.350;2022-07-22T15:49:10;96343.94;;;30.71;33.11
596;BME280;19946;49.306;11.350;2022-07-22T15:52:11;96354.59;;;30.66;33.92
596;BME280;19946;49.306;11.350;2022-07-22T15:55:11;96351.41;;;30.32;34.35
596;BME280;19946;49.306;11.350;2022-07-22T15:58:12;96349.69;;;29.89;34.30
596;BME280;19946;49.306;11.350;2022-07-22T16:01:31;96354.34;;;29.99;36.71
596;BME280;19946;49.306;11.350;2022-07-22T16:04:32;96325.44;;;29.64;35.73
596;BME280;19946;49.306;11.350;2022-07-22T16:07:32;96333.13;;;29.33;35.24
596;BME280;19946;49.306;11.350;2022-07-22T16:10:32;96345.47;;;29.61;36.92
596;BME280;19946;49.306;11.350;2022-07-22T16:13:33;96335.53;;;29.84;36.03
596;BME280;19946;49.306;11.350;2022-07-22T16:16:33;96343.63;;;29.67;36.04
596;BME280;19946;49.306;11.350;2022-07-22T16:19:33;96334.88;;;29.71;34.83
596;BME280;19946;49.306;11.350;2022-07-22T16:22:35;96343.22;;;29.53;34.65
596;BME280;19946;49.306;11.350;2022-07-22T16:25:35;96302.28;;;29.16;35.47
596;BME280;19946;49.306;11.350;2022-07-22T16:28:36;96335.03;;;29.60;35.57
596;BME280;19946;49.306;11.350;2022-07-22T16:31:36;96305.50;;;29.39;35.54